St. Louis, MO

10:36 PM CDT on July 29, 2016 (GMT -0500)
1 Mile South of St. Louis Lambert Airport | | Change Station

Elev 591 ft 38.72 °N, 90.36 °W | Updated 1 second ago

Partly Cloudy
Partly Cloudy
76.9 °F
Feels Like 78 °F
N
2.0
Wind Variable Wind from NE
Gusts 6.0 mph

Today
High -- | Low -- °F
--% Chance of Precip.
Yesterday
High -- | Low -- °F
Precip. -- in
Pressure 29.91 in
Visibility 10.0 miles
Clouds Few 15000 ft
Heat Index 78 °F
Dew Point 70 °F
Humidity 79%
Rainfall 0.00 in
Snow Depth Not available.
6:00 AM 8:14 PM
Waning Crescent, 16% visible
METAR KSTL 300251Z 35003KT 10SM FEW150 26/19 A2994 RMK AO2 SLP127 T02560194 53008
Pressure 29.91 in
Visibility 10.0 miles
Clouds Few 15000 ft
Heat Index 78 °F
Dew Point 70 °F
Humidity 79%
Rainfall 0.00 in
Snow Depth Not available.
6:00 AM 8:14 PM
Waning Crescent, 16% visible
METAR KSTL 300251Z 35003KT 10SM FEW150 26/19 A2994 RMK AO2 SLP127 T02560194 53008

10-Day Weather Forecast

Almanac

Astronomy

Jul. 29, 2016 Rise Set
Actual Time
Civil Twilight
Nautical Twilight
Astronomical Twilight
Moon
Length of Visible Light
Length of Day
Tomorrow will be .
, % of the Moon is Illuminated

Today's Extremes

State Highs State Lows

Community

WunderPhotos

Upload Photos

1,928,500 photos uploaded!

WunderBlog® & News

Nearby

Air Quality

  Air Quality AQ Index Pollutant
Not available.

Snow Depth

Station Depth Elevation

Earthquake Activity

City Distance Mag. Time & Date
Minimum magnitude displayed is 2.5.

Coastal Water Temperatures

Place Temperature

Stations

Nearby Weather Stations

Station Location Temp. Windchill Dew Point Humidity Wind Precip. Elev Updated Type
                   

Watches & Warnings

There are currently no watches in effect.